• Join FlightAware (Why Join?)
  • Login
  • US Flag 
04:15PM EDT


 

Airport Tracker/Info


-or-


 

Live Flight TrackerFlight Track Log ✈ EJA162 ✈ 04-Oct-2013 ✈ KLGB - KOMA

Flight Track Log - Related Links

Times and Time Zones

All times are in EDT time to prevent confusion due to time zone crossing. See the EJA162 flight status page for this flight to view local times or setup timezone preferences in your user account.

Time Position Orientation Groundspeed Altitude Reporting Facility
EDT Latitude Longitude Course Direction KTS MPH feet Rate Location/Type
10:04AM 33.8411 -118.2069 47° Northeast 216 249 2,900  Level Los Angeles Center
10:05AM 33.7736 -118.2433 204° Southwest 273 314 5,600 3,120 Climbing Los Angeles Center
10:06AM 33.6956 -118.2681 195° South 280 322 9,300 2,520 Climbing Los Angeles Center
10:08AM 33.6167 -118.2319 159° South 335 386 10,900 2,220 Climbing Los Angeles Center
10:09AM 33.6289 -118.1178 83° East 358 412 13,900 2,520 Climbing Los Angeles Center
10:10AM 34.2005 -117.3301 47° Northeast  Level Estimated
10:10AM 33.7300 -118.0414 32° Northeast 369 425 16,100  Level Los Angeles Center
10:11AM 33.8253 -117.9856 26° Northeast 382 440 18,000 1,980 Climbing Los Angeles Center
10:12AM 33.9236 -117.9256 27° Northeast 396 456 20,200 1,980 Climbing Los Angeles Center
10:13AM 34.0164 -117.8433 36° Northeast 414 476 22,100 1,740 Climbing Los Angeles Center
10:14AM 34.1086 -117.7511 40° Northeast 430 495 23,800 1,740 Climbing Los Angeles Center
10:15AM 34.1919 -117.6381 48° Northeast 449 517 25,700 1,740 Climbing Los Angeles Center
10:16AM 34.2947 -117.4986 48° Northeast 464 534 27,500 1,560 Climbing Los Angeles Center
10:17AM 34.3811 -117.3814 48° Northeast 467 537 28,900 720 Climbing Los Angeles Center
10:18AM 34.4686 -117.2597 49° Northeast 471 542 29,000 660 Climbing Los Angeles Center
10:19AM 34.5558 -117.1392 49° Northeast 476 548 30,300 1,440 Climbing Los Angeles Center
10:20AM 34.6442 -117.0169 49° Northeast 481 554 32,000 1,680 Climbing Los Angeles Center
10:21AM 34.7325 -116.8936 49° Northeast 484 557 33,800 1,740 Climbing Los Angeles Center
10:22AM 34.8208 -116.7703 49° Northeast 486 559 35,700 1,740 Climbing Los Angeles Center
10:23AM 34.9275 -116.6242 48° Northeast 484 557 37,500 1,620 Climbing Los Angeles Center
10:24AM 35.0172 -116.5050 47° Northeast 483 556 39,100 1,140 Climbing Los Angeles Center
10:25AM 35.1083 -116.3903 46° Northeast 475 547 39,900 900 Climbing Los Angeles Center
10:26AM 35.2053 -116.2714 45° Northeast 489 563 41,000 480 Climbing Los Angeles Center
10:27AM 35.3011 -116.1506 46° Northeast 497 572 41,000  Level Los Angeles Center
10:28AM 35.3992 -116.0261 46° Northeast 507 583 41,000  Level Los Angeles Center
10:29AM 35.4989 -115.9036 45° Northeast 510 587 41,000  Level Los Angeles Center
10:30AM 35.6186 -115.7494 46° Northeast 503 579 41,000  Level Los Angeles Center
10:31AM 35.7156 -115.6267 46° Northeast 502 578 41,000  Level Los Angeles Center
10:32AM 35.8100 -115.5053 46° Northeast 496 571 41,000  Level Los Angeles Center
10:33AM 35.9061 -115.3839 46° Northeast 497 572 41,000  Level Los Angeles Center
10:34AM 36.0003 -115.2619 46° Northeast 497 572 41,000  Level Los Angeles Center
10:36AM 36.0978 -115.0950 54° Northeast 511 588 41,000  Level Los Angeles Center
10:37AM 36.1597 -114.8939 69° East 524 603 41,000  Level Los Angeles Center
10:38AM 36.2111 -114.7250 69° East 527 606 41,000  Level Los Angeles Center
10:39AM 36.2622 -114.5569 69° East 524 603 41,000  Level Los Angeles Center
10:40AM 36.3150 -114.3853 69° East 532 612 41,000  Level Los Angeles Center
10:41AM 36.3669 -114.2133 69° East 533 613 41,000  Level Los Angeles Center
10:42AM 36.4086 -114.0758 69° East 535 616 41,000  Level Los Angeles Center
10:43AM 36.4811 -113.8322 70° East 537 618 41,000  Level Los Angeles Center
10:44AM 36.5317 -113.6622 70° East 540 621 41,000  Level Los Angeles Center
10:45AM 36.5839 -113.4872 70° East 542 624 41,000  Level Los Angeles Center
10:46AM 36.6344 -113.3125 70° East 541 623 41,000  Level Los Angeles Center
10:47AM 36.6850 -113.1381 70° East 539 620 41,000  Level Los Angeles Center
10:48AM 36.7458 -112.9267 70° East 543 625 41,000  Level Los Angeles Center
10:49AM 36.7958 -112.7519 70° East 540 621 41,000  Level Los Angeles Center
10:50AM 36.8456 -112.5775 70° East 538 619 41,000  Level Los Angeles Center
10:51AM 36.8944 -112.4042 71° East 535 616 41,000  Level Los Angeles Center
10:52AM 36.9431 -112.2325 70° East 530 610 41,000  Level Los Angeles Center
10:53AM 37.0000 -112.0264 71° East 527 606 41,000  Level Los Angeles Center
10:54AM 37.0569 -111.8214 71° East 523 602 41,000  Level Los Angeles Center
10:55AM 37.1047 -111.6489 71° East 526 605 41,000  Level Los Angeles Center
10:56AM 37.1314 -111.5456 72° East 527 606 41,000  Level Denver Center
10:57AM 37.1797 -111.3719 71° East 530 610 41,000  Level Denver Center
10:58AM 37.2256 -111.1981 72° East 528 608 41,000  Level Denver Center
10:59AM 37.2714 -111.0242 72° East 527 606 41,000  Level Denver Center
11:00AM 37.3292 -110.8125 71° East 533 613 41,000  Level Denver Center
11:01AM 37.3750 -110.6361 72° East 535 616 41,000  Level Denver Center
11:02AM 37.4217 -110.4589 72° East 535 616 41,000  Level Denver Center
11:03AM 37.4681 -110.2828 72° East 533 613 41,000  Level Denver Center
11:04AM 37.5172 -110.0908 72° East 522 601 41,000 480 Level Denver Center
11:05AM 37.5606 -109.9219 72° East 528 608 42,000 960 Climbing Denver Center
11:06AM 37.6094 -109.7297 72° East 517 595 43,000 480 Climbing Denver Center
11:07AM 37.6517 -109.5614 72° East 522 601 43,000  Level Denver Center
11:08AM 37.6944 -109.3892 73° East 532 612 43,000  Level Denver Center
11:09AM 37.7450 -109.1900 72° East 533 613 43,000  Level Denver Center
11:10AM 37.7878 -109.0147 73° East 540 621 43,000  Level Denver Center
11:11AM 37.8500 -108.8161 68° East 540 621 43,000  Level Denver Center
11:12AM 37.9092 -108.6475 66° East 543 625 43,000  Level Denver Center
11:13AM 37.9781 -108.4447 67° East 554 638 43,000  Level Denver Center
11:14AM 38.0372 -108.2728 66° East 557 641 43,000  Level Denver Center
11:16AM 38.1011 -108.0844 67° East 559 643 43,000  Level Denver Center
11:17AM 38.1692 -107.8856 66° East 554 638 43,000  Level Denver Center
11:18AM 38.2269 -107.7150 67° East 552 635 43,000  Level Denver Center
11:19AM 38.2950 -107.5133 67° East 557 641 43,000  Level Denver Center
11:20AM 38.3517 -107.3442 67° East 548 631 43,000  Level Denver Center
11:21AM 38.4067 -107.1797 67° East 547 629 43,000  Level Denver Center
11:22AM 38.4675 -106.9653 70° East 540 621 43,000  Level Denver Center
11:23AM 38.5036 -106.7781 76° East 543 625 43,000  Level Denver Center
11:24AM 38.5392 -106.5922 76° East 543 625 43,000  Level Denver Center
11:25AM 38.5761 -106.4050 76° East 546 628 43,000  Level Denver Center
11:26AM 38.6131 -106.2161 76° East 549 632 43,000  Level Denver Center
11:27AM 38.6561 -105.9922 76° East 553 636 43,000  Level Denver Center
11:28AM 38.6919 -105.8033 76° East 552 635 43,000  Level Denver Center
11:29AM 38.7286 -105.6117 76° East 555 639 43,000  Level Denver Center
11:30AM 38.7642 -105.4183 77° East 559 643 43,000  Level Denver Center
11:31AM 38.8061 -105.1836 77° East 565 650 43,000  Level Denver Center
11:32AM 38.8414 -104.9903 77° East 562 647 43,000  Level Denver Center
11:33AM 38.8767 -104.7953 77° East 565 650 43,000  Level Denver Center
11:34AM 38.9122 -104.6006 77° East 566 651 43,000  Level Denver Center
11:35AM 38.9467 -104.4067 77° East 563 648 43,000  Level Denver Center
11:36AM 38.9869 -104.1739 77° East 562 647 43,000  Level Denver Center
11:37AM 39.0203 -103.9783 78° East 565 650 43,000  Level Denver Center
11:38AM 39.0544 -103.7800 77° East 572 658 43,000  Level Denver Center
11:39AM 39.0875 -103.5811 78° East 572 658 43,000  Level Denver Center
11:40AM 39.1214 -103.3833 77° East 570 656 43,000  Level Denver Center
11:41AM 39.1592 -103.1492 78° East 561 646 43,000  Level Denver Center
11:42AM 39.1908 -102.9539 78° East 559 643 43,000  Level Denver Center
11:43AM 39.2222 -102.7625 78° East 550 633 43,000  Level Denver Center
11:44AM 39.2689 -102.5733 72° East 542 624 43,000  Level Denver Center
11:46AM 39.3486 -102.3897 61° Northeast 542 624 43,000  Level Denver Center
11:47AM 39.4181 -102.2283 61° Northeast 539 620 43,000  Level Denver Center
11:48AM 39.4967 -102.0431 61° Northeast 528 608 43,000  Level Denver Center
11:49AM 39.5633 -101.8844 61° Northeast 525 604 43,000 -780 Level Denver Center
11:50AM 39.6436 -101.6931 61° Northeast 542 624 41,500 -1,620 Descending Denver Center
11:51AM 39.7139 -101.5258 61° Northeast 552 635 39,700 -1,260 Descending Denver Center
11:52AM 39.7961 -101.3275 62° Northeast 557 641 39,000 -360 Descending Denver Center
11:53AM 39.8667 -101.1569 62° Northeast 561 646 39,000  Level Denver Center
11:54AM 39.9478 -100.9589 62° Northeast 557 641 39,000  Level Denver Center
11:55AM 40.0167 -100.7894 62° Northeast 556 640 39,000  Level Denver Center
11:56AM 40.0967 -100.5936 62° Northeast 551 634 39,000  Level Denver Center
11:57AM 40.1636 -100.4275 62° Northeast 544 626 39,000  Level Denver Center
11:58AM 40.2414 -100.2336 62° Northeast 541 623 39,000  Level Denver Center
11:59AM 40.3075 -100.0658 63° Northeast 544 626 39,000  Level Denver Center
12:00PM 40.3883 -99.8639 62° Northeast 552 635 39,000 -720 Level Denver Center
12:01PM 40.4589 -99.6850 63° Northeast 554 638 37,600 -1,680 Descending Denver Center
12:02PM 40.5294 -99.5036 63° Northeast 558 642 35,600 -1,260 Descending Denver Center
12:03PM 40.6014 -99.3178 63° Northeast 568 654 35,000 -420 Descending Denver Center
12:04PM 40.6453 -99.2092 62° Northeast 568 654 35,000  Level Minneapolis Center
12:04PM 40.6731 -99.1339 64° Northeast 568 654 35,000  Level Denver Center
12:05PM 40.7158 -99.0239 63° Northeast 569 655 35,000 -120 Level Minneapolis Center
12:06PM 40.7803 -98.8547 63° Northeast 569 655 34,900 -900 Descending Minneapolis Center
12:07PM 40.8517 -98.6642 64° Northeast 575 662 33,200 -1,980 Descending Minneapolis Center
12:08PM 40.9367 -98.4394 63° Northeast 571 657 30,900 -2,040 Descending Minneapolis Center
12:09PM 41.0017 -98.2489 66° East 552 635 29,100 -1,740 Descending Minneapolis Center
12:10PM 41.0486 -98.0719 71° East 519 597 27,400 -1,620 Descending Minneapolis Center
12:11PM 41.0950 -97.9006 70° East 502 578 25,800 -1,620 Descending Minneapolis Center
12:12PM 41.1383 -97.7347 71° East 484 557 24,200 -1,560 Descending Minneapolis Center
12:13PM 41.1800 -97.5736 71° East 467 537 22,700 -1,440 Descending Minneapolis Center
12:14PM 41.2219 -97.4186 70° East 452 520 21,300 -1,380 Descending Minneapolis Center
12:15PM 41.2611 -97.2678 71° East 447 514 19,900 -1,500 Descending Minneapolis Center
12:16PM 41.2872 -97.1069 78° East 438 504 18,400 -1,260 Descending Minneapolis Center
12:16PM 41.3003 -97.1150 335° Northwest 440 506 18,600 -1,500 Climbing Minneapolis Center
12:17PM 41.3461 -96.9356 71° East 429 494 16,700 -1,800 Descending Minneapolis Center
12:17PM 41.3339 -96.9333 172° South 422 486 16,700 -1,680 Level Minneapolis Center
12:18PM 41.3439 -96.7797 85° East 390 449 14,900 -1,800 Descending Minneapolis Center
12:19PM 41.3475 -96.6600 88° East 379 436 13,300 -1,800 Descending Minneapolis Center
12:19PM 41.3567 -96.6497 40° Northeast 383 441 13,200 -1,980 Descending Minneapolis Center
12:20PM 41.3517 -96.5208 93° East 350 403 11,300 -1,980 Descending Minneapolis Center
12:20PM 41.3600 -96.5164 22° Northeast 368 423 11,200 -1,920 Descending Minneapolis Center
12:21PM 41.3625 -96.4003 88° East 330 380 9,200 -2,100 Descending Minneapolis Center
12:22PM 41.3589 -96.2981 93° East 278 320 7,200 -1,920 Descending Minneapolis Center
12:22PM 41.3644 -96.2922 38° Northeast 304 350 7,300 -2,160 Climbing Minneapolis Center
12:23PM 41.3664 -96.1986 88° East 281 323 4,800 -1,920 Descending Minneapolis Center
12:24PM 41.3644 -96.1225 92° East 212 244 3,700 -1,140 Descending Minneapolis Center
12:24PM 41.3678 -96.1164 54° Northeast 251 289 3,700 -540 Level Minneapolis Center
12:25PM 41.3786 -96.0514 77° East 208 239 3,200 -540 Descending Minneapolis Center
12:25PM 41.3817 -96.0447 59° Northeast 239 275 3,200 -180 Level Minneapolis Center
12:26PM 41.4067 -95.9983 54° Northeast 167 192 3,000 -240 Descending Minneapolis Center
12:26PM 41.4081 -95.9928 72° East 207 238 3,000  Level Minneapolis Center
12:27PM 41.3797 -95.9622 141° Southeast 156 180 3,000 -120 Level Minneapolis Center
12:27PM 41.3753 -95.9658 211° Southwest 98 113 2,900 -900 Descending Minneapolis Center
12:28PM 41.3556 -95.9408 136° Southeast 125 144 2,100 -900 Descending Minneapolis Center
12:28PM 41.3508 -95.9436 204° Southwest 100 115 2,000 -600 Descending Minneapolis Center
12:29PM 41.3294 -95.9153 135° Southeast 117 135 1,500 -540 Descending Minneapolis Center
12:30PM 41.3022 -95.8889 144° Southeast 115 132 1,000 -540 Descending Minneapolis Center